Pensacola, FL (32503)

9:30 PM CDT on August 29, 2014 (GMT -0500)
APRSWXNET Pensacola FL US | Change Station
CLOSE
Current Station
Personal Weather Station
Location: Pensacola, FL
Elevation: 85 ft
Nearby Weather Stations

Elev 85 ft 30.45 °N, 87.22 °W | Updated 121 days ago

Thunderstorm
Thunderstorm
81 °F
Feels Like 84 °F
N
7
Wind Variable Wind from South
Gusts 9 mph

Today
High -- | Low -- °F
--% Chance of Precip.
Yesterday
High -- | Low -- °F
Precip. -- in
6:23 AM 7:15 PM
Waxing Crescent, 18% visible
Pressure 30.03 in
Visibility 10.0 miles
Clouds Scattered Clouds 9000 ft
Mostly Cloudy 11000 ft
Heat Index 84 °F
Dew Point 73 °F
Humidity 78%
Rainfall 4.00 in
Snow Depth Not available.
UV 0 out of 12
Pollen 7.60 out of 12
PM2.5 Good
Flu Activity Not available.
METAR KPNS 300153Z 08004KT 10SM SCT090 BKN110 24/23 A3003 RMK AO2 SLP169 T02440233

More Conditions Fewer Conditions

Pressure 30.03 in
Visibility 10.0 miles
Clouds Scattered Clouds 9000 ft
Mostly Cloudy 11000 ft
Heat Index 84 °F
Dew Point 73 °F
Humidity 78%
Rainfall 4.00 in
Snow Depth Not available.
UV 0 out of 12
Pollen 7.60 out of 12
PM2.5 Good
Flu Activity Not available.
METAR KPNS 300153Z 08004KT 10SM SCT090 BKN110 24/23 A3003 RMK AO2 SLP169 T02440233

More Conditions Fewer Conditions

10-Day Weather Forecast

Almanac

Astronomy

Aug. 29, 2014 Rise Set
Actual Time 6:23 AM CDT 7:15 PM CDT
Civil Twilight 5:59 AM CDT 7:39 PM CDT
Nautical Twilight 5:30 AM CDT 8:08 PM CDT
Astronomical Twilight 5:00 AM CDT 8:38 PM CDT
Moon 9:54 AM CDT (8/29) 9:32 PM CDT (8/29)
Length of Visible Light 13h 40m
Length of Day
12h 51m
Tomorrow will be 1m 45s shorter.
Waxing Crescent, 18% of the Moon is Illuminated
Today
Waxing Crescent
Sep 2
First Quarter
Sep 8
Full
Sep 15
Last Quarter
Sep 24
New

Today's Extremes

State Highs State Lows

Community

WunderPhotos

Upload Photos

1,748,412 photos uploaded!

Nearby

Air Quality

  Air Quality AQ Index Pollutant
Yesterday Good
PM2.5
Yesterday Good
OZONE
Current Good
PM2.5
Friday Moderate
PM2.5
Friday Good
OZONE
Saturday Good
OZONE
Saturday Good
PM2.5
Sunday Good
OZONE
Sunday Good
PM2.5
Monday Good
OZONE
Monday Good
PM2.5
Tuesday Good
OZONE
Tuesday Good
PM2.5

Snow Depth

Station Depth Elevation
No new snow has been reported.

Earthquake Activity

City Distance Mag. Time & Date
No recent earthquake activity has been reported nearby.
Minimum magnitude displayed is 2.5.

Coastal Water Temperatures

Place Temperature
No Stations Reporting

Nearby Weather Stations